sensor_id;sensor_type;location;lat;lon;timestamp;temperature;humidity
17128;DHT22;8679;50.842;4.322;2022-07-31T00:00:38;20.30;99.90
17128;DHT22;8679;50.842;4.322;2022-07-31T00:03:03;20.20;99.90
17128;DHT22;8679;50.842;4.322;2022-07-31T00:05:29;20.20;99.90
17128;DHT22;8679;50.842;4.322;2022-07-31T00:07:56;20.20;99.90
17128;DHT22;8679;50.842;4.322;2022-07-31T00:10:22;20.10;99.90
17128;DHT22;8679;50.842;4.322;2022-07-31T00:12:48;20.00;99.90
17128;DHT22;8679;50.842;4.322;2022-07-31T00:15:14;20.00;99.90
17128;DHT22;8679;50.842;4.322;2022-07-31T00:17:41;20.00;99.90
17128;DHT22;8679;50.842;4.322;2022-07-31T00:20:08;19.90;99.90
17128;DHT22;8679;50.842;4.322;2022-07-31T00:22:34;19.90;99.90
17128;DHT22;8679;50.842;4.322;2022-07-31T00:25:01;20.00;99.90
17128;DHT22;8679;50.842;4.322;2022-07-31T00:27:26;20.00;99.90
17128;DHT22;8679;50.842;4.322;2022-07-31T00:29:52;19.80;99.90
17128;DHT22;8679;50.842;4.322;2022-07-31T00:32:18;19.80;99.90
17128;DHT22;8679;50.842;4.322;2022-07-31T00:34:44;19.70;99.90
17128;DHT22;8679;50.842;4.322;2022-07-31T00:37:09;19.70;99.90
17128;DHT22;8679;50.842;4.322;2022-07-31T00:39:35;19.70;99.90
17128;DHT22;8679;50.842;4.322;2022-07-31T00:42:01;19.60;99.90
17128;DHT22;8679;50.842;4.322;2022-07-31T00:44:27;19.50;99.90
17128;DHT22;8679;50.842;4.322;2022-07-31T00:46:53;19.50;99.90
17128;DHT22;8679;50.842;4.322;2022-07-31T00:49:19;19.50;99.90
17128;DHT22;8679;50.842;4.322;2022-07-31T00:51:45;19.50;99.90
17128;DHT22;8679;50.842;4.322;2022-07-31T00:54:11;19.40;99.90
17128;DHT22;8679;50.842;4.322;2022-07-31T00:56:37;19.40;99.90
17128;DHT22;8679;50.842;4.322;2022-07-31T00:59:03;19.40;99.90
17128;DHT22;8679;50.842;4.322;2022-07-31T01:01:29;19.30;99.90
17128;DHT22;8679;50.842;4.322;2022-07-31T01:03:55;19.30;99.90
17128;DHT22;8679;50.842;4.322;2022-07-31T01:06:21;19.10;99.90
17128;DHT22;8679;50.842;4.322;2022-07-31T01:08:47;19.20;99.90
17128;DHT22;8679;50.842;4.322;2022-07-31T01:11:18;19.10;99.90
17128;DHT22;8679;50.842;4.322;2022-07-31T01:13:58;19.10;99.90
17128;DHT22;8679;50.842;4.322;2022-07-31T01:16:29;19.00;99.90
17128;DHT22;8679;50.842;4.322;2022-07-31T01:18:56;19.00;99.90
17128;DHT22;8679;50.842;4.322;2022-07-31T01:21:35;19.00;99.90
17128;DHT22;8679;50.842;4.322;2022-07-31T01:26:59;18.90;99.90
17128;DHT22;8679;50.842;4.322;2022-07-31T01:29:41;18.80;99.90
17128;DHT22;8679;50.842;4.322;2022-07-31T01:32:15;18.70;99.90
17128;DHT22;8679;50.842;4.322;2022-07-31T01:34:59;18.80;99.90
17128;DHT22;8679;50.842;4.322;2022-07-31T01:37:30;18.70;99.90
17128;DHT22;8679;50.842;4.322;2022-07-31T01:42:35;18.70;99.90
17128;DHT22;8679;50.842;4.322;2022-07-31T01:45:04;18.70;99.90
17128;DHT22;8679;50.842;4.322;2022-07-31T01:47:32;18.70;99.90
17128;DHT22;8679;50.842;4.322;2022-07-31T01:49:59;18.70;99.90
17128;DHT22;8679;50.842;4.322;2022-07-31T01:52:28;18.70;99.90
17128;DHT22;8679;50.842;4.322;2022-07-31T01:54:56;18.70;99.90
17128;DHT22;8679;50.842;4.322;2022-07-31T01:57:23;18.70;99.90
17128;DHT22;8679;50.842;4.322;2022-07-31T01:59:55;18.70;99.90
17128;DHT22;8679;50.842;4.322;2022-07-31T02:02:22;18.70;99.90
17128;DHT22;8679;50.842;4.322;2022-07-31T02:04:49;18.70;99.90
17128;DHT22;8679;50.842;4.322;2022-07-31T02:07:17;18.70;99.90
17128;DHT22;8679;50.842;4.322;2022-07-31T02:09:45;18.60;99.90
17128;DHT22;8679;50.842;4.322;2022-07-31T02:12:11;18.60;99.90
17128;DHT22;8679;50.842;4.322;2022-07-31T02:14:40;18.60;99.90
17128;DHT22;8679;50.842;4.322;2022-07-31T02:17:08;18.60;99.90
17128;DHT22;8679;50.842;4.322;2022-07-31T02:19:35;18.60;99.90
17128;DHT22;8679;50.842;4.322;2022-07-31T02:22:03;18.60;99.90
17128;DHT22;8679;50.842;4.322;2022-07-31T02:24:29;18.60;99.90
17128;DHT22;8679;50.842;4.322;2022-07-31T02:26:56;18.60;99.90
17128;DHT22;8679;50.842;4.322;2022-07-31T02:29:23;18.50;99.90
17128;DHT22;8679;50.842;4.322;2022-07-31T02:31:50;18.60;99.90
17128;DHT22;8679;50.842;4.322;2022-07-31T02:34:21;18.60;99.90
17128;DHT22;8679;50.842;4.322;2022-07-31T02:36:48;18.60;99.90
17128;DHT22;8679;50.842;4.322;2022-07-31T02:39:16;18.60;99.90
17128;DHT22;8679;50.842;4.322;2022-07-31T02:41:42;18.60;99.90
17128;DHT22;8679;50.842;4.322;2022-07-31T02:44:10;18.60;99.90
17128;DHT22;8679;50.842;4.322;2022-07-31T02:46:37;18.60;99.90
17128;DHT22;8679;50.842;4.322;2022-07-31T02:49:04;18.60;99.90
17128;DHT22;8679;50.842;4.322;2022-07-31T02:51:30;18.60;99.90
17128;DHT22;8679;50.842;4.322;2022-07-31T02:53:56;18.60;99.90
17128;DHT22;8679;50.842;4.322;2022-07-31T02:56:23;18.60;99.90
17128;DHT22;8679;50.842;4.322;2022-07-31T02:58:49;18.60;99.90
17128;DHT22;8679;50.842;4.322;2022-07-31T03:01:15;18.60;99.90
17128;DHT22;8679;50.842;4.322;2022-07-31T03:03:41;18.60;99.90
17128;DHT22;8679;50.842;4.322;2022-07-31T03:06:07;18.60;99.90
17128;DHT22;8679;50.842;4.322;2022-07-31T03:08:33;18.60;99.90
17128;DHT22;8679;50.842;4.322;2022-07-31T03:10:59;18.60;99.90
17128;DHT22;8679;50.842;4.322;2022-07-31T03:13:27;18.60;99.90
17128;DHT22;8679;50.842;4.322;2022-07-31T03:15:54;18.50;99.90
17128;DHT22;8679;50.842;4.322;2022-07-31T03:18:21;18.50;99.90
17128;DHT22;8679;50.842;4.322;2022-07-31T03:20:48;18.60;99.90
17128;DHT22;8679;50.842;4.322;2022-07-31T03:23:19;18.50;99.90
17128;DHT22;8679;50.842;4.322;2022-07-31T03:25:47;18.50;99.90
17128;DHT22;8679;50.842;4.322;2022-07-31T03:28:13;18.50;99.90
17128;DHT22;8679;50.842;4.322;2022-07-31T03:30:39;18.60;99.90
17128;DHT22;8679;50.842;4.322;2022-07-31T03:33:05;18.50;99.90
17128;DHT22;8679;50.842;4.322;2022-07-31T03:35:31;18.50;99.90
17128;DHT22;8679;50.842;4.322;2022-07-31T03:37:58;18.50;99.90
17128;DHT22;8679;50.842;4.322;2022-07-31T03:40:24;18.50;99.90
17128;DHT22;8679;50.842;4.322;2022-07-31T03:42:51;18.50;99.90
17128;DHT22;8679;50.842;4.322;2022-07-31T03:45:19;18.50;99.90
17128;DHT22;8679;50.842;4.322;2022-07-31T03:47:46;18.50;99.90
17128;DHT22;8679;50.842;4.322;2022-07-31T03:50:12;18.50;99.90
17128;DHT22;8679;50.842;4.322;2022-07-31T03:52:38;18.40;99.90
17128;DHT22;8679;50.842;4.322;2022-07-31T03:55:06;18.40;99.90
17128;DHT22;8679;50.842;4.322;2022-07-31T03:57:32;18.40;99.90
17128;DHT22;8679;50.842;4.322;2022-07-31T03:59:59;18.40;99.90
17128;DHT22;8679;50.842;4.322;2022-07-31T04:02:27;18.30;99.90
17128;DHT22;8679;50.842;4.322;2022-07-31T04:04:54;18.40;99.90
17128;DHT22;8679;50.842;4.322;2022-07-31T04:07:19;18.40;99.90
17128;DHT22;8679;50.842;4.322;2022-07-31T04:09:45;18.40;99.90
17128;DHT22;8679;50.842;4.322;2022-07-31T04:12:11;18.40;99.90
17128;DHT22;8679;50.842;4.322;2022-07-31T04:14:37;18.30;99.90
17128;DHT22;8679;50.842;4.322;2022-07-31T04:17:03;18.30;99.90
17128;DHT22;8679;50.842;4.322;2022-07-31T04:19:28;18.30;99.90
17128;DHT22;8679;50.842;4.322;2022-07-31T04:21:58;18.30;99.90
17128;DHT22;8679;50.842;4.322;2022-07-31T04:24:24;18.30;99.90
17128;DHT22;8679;50.842;4.322;2022-07-31T04:26:50;18.30;99.90
17128;DHT22;8679;50.842;4.322;2022-07-31T04:29:16;18.30;99.90
17128;DHT22;8679;50.842;4.322;2022-07-31T04:31:42;18.30;99.90
17128;DHT22;8679;50.842;4.322;2022-07-31T04:34:07;18.30;99.90
17128;DHT22;8679;50.842;4.322;2022-07-31T04:36:33;18.30;99.90
17128;DHT22;8679;50.842;4.322;2022-07-31T04:38:59;18.30;99.90
17128;DHT22;8679;50.842;4.322;2022-07-31T04:41:26;18.30;99.90
17128;DHT22;8679;50.842;4.322;2022-07-31T04:43:51;18.30;99.90
17128;DHT22;8679;50.842;4.322;2022-07-31T04:46:17;18.30;99.90
17128;DHT22;8679;50.842;4.322;2022-07-31T04:48:43;18.30;99.90
17128;DHT22;8679;50.842;4.322;2022-07-31T04:51:16;18.30;99.90
17128;DHT22;8679;50.842;4.322;2022-07-31T04:53:42;18.30;99.90
17128;DHT22;8679;50.842;4.322;2022-07-31T04:56:08;18.30;99.90
17128;DHT22;8679;50.842;4.322;2022-07-31T04:58:52;18.40;99.90
17128;DHT22;8679;50.842;4.322;2022-07-31T05:01:17;18.40;99.90
17128;DHT22;8679;50.842;4.322;2022-07-31T05:03:43;18.40;99.90
17128;DHT22;8679;50.842;4.322;2022-07-31T05:06:12;18.40;99.90
17128;DHT22;8679;50.842;4.322;2022-07-31T05:08:38;18.40;99.90
17128;DHT22;8679;50.842;4.322;2022-07-31T05:11:04;18.50;99.90
17128;DHT22;8679;50.842;4.322;2022-07-31T05:13:50;18.50;99.90
17128;DHT22;8679;50.842;4.322;2022-07-31T05:16:16;18.60;99.90
17128;DHT22;8679;50.842;4.322;2022-07-31T05:18:43;18.50;99.90
17128;DHT22;8679;50.842;4.322;2022-07-31T05:21:13;18.60;99.90
17128;DHT22;8679;50.842;4.322;2022-07-31T05:23:39;18.60;99.90
17128;DHT22;8679;50.842;4.322;2022-07-31T05:26:05;18.60;99.90
17128;DHT22;8679;50.842;4.322;2022-07-31T05:28:31;18.60;99.90
17128;DHT22;8679;50.842;4.322;2022-07-31T05:30:57;18.60;99.90
17128;DHT22;8679;50.842;4.322;2022-07-31T05:33:23;18.60;99.90
17128;DHT22;8679;50.842;4.322;2022-07-31T05:35:49;18.60;99.90
17128;DHT22;8679;50.842;4.322;2022-07-31T05:38:15;18.70;99.90
17128;DHT22;8679;50.842;4.322;2022-07-31T05:40:41;18.60;99.90
17128;DHT22;8679;50.842;4.322;2022-07-31T05:43:07;18.60;99.90
17128;DHT22;8679;50.842;4.322;2022-07-31T05:45:33;18.70;99.90
17128;DHT22;8679;50.842;4.322;2022-07-31T05:47:59;18.70;99.90
17128;DHT22;8679;50.842;4.322;2022-07-31T05:50:24;18.70;99.90
17128;DHT22;8679;50.842;4.322;2022-07-31T05:52:50;18.60;99.90
17128;DHT22;8679;50.842;4.322;2022-07-31T05:55:15;18.60;99.90
17128;DHT22;8679;50.842;4.322;2022-07-31T05:57:41;18.70;99.90
17128;DHT22;8679;50.842;4.322;2022-07-31T06:00:08;18.70;99.90
17128;DHT22;8679;50.842;4.322;2022-07-31T06:02:34;18.80;99.90
17128;DHT22;8679;50.842;4.322;2022-07-31T06:05:00;18.80;99.90
17128;DHT22;8679;50.842;4.322;2022-07-31T06:07:26;18.80;99.90
17128;DHT22;8679;50.842;4.322;2022-07-31T06:09:52;18.80;99.90
17128;DHT22;8679;50.842;4.322;2022-07-31T06:12:17;18.90;99.90
17128;DHT22;8679;50.842;4.322;2022-07-31T06:14:44;18.90;99.90
17128;DHT22;8679;50.842;4.322;2022-07-31T06:17:10;18.90;99.90
17128;DHT22;8679;50.842;4.322;2022-07-31T06:19:36;18.90;99.90
17128;DHT22;8679;50.842;4.322;2022-07-31T06:22:02;19.10;99.90
17128;DHT22;8679;50.842;4.322;2022-07-31T06:24:28;19.10;99.90
17128;DHT22;8679;50.842;4.322;2022-07-31T06:27:02;19.20;99.90
17128;DHT22;8679;50.842;4.322;2022-07-31T06:29:28;19.30;99.90
17128;DHT22;8679;50.842;4.322;2022-07-31T06:31:54;19.40;99.90
17128;DHT22;8679;50.842;4.322;2022-07-31T06:34:20;19.50;99.90
17128;DHT22;8679;50.842;4.322;2022-07-31T06:36:46;19.50;99.90
17128;DHT22;8679;50.842;4.322;2022-07-31T06:39:12;19.50;99.90
17128;DHT22;8679;50.842;4.322;2022-07-31T06:41:37;19.50;99.90
17128;DHT22;8679;50.842;4.322;2022-07-31T06:44:13;19.60;99.90
17128;DHT22;8679;50.842;4.322;2022-07-31T06:46:38;19.70;99.90
17128;DHT22;8679;50.842;4.322;2022-07-31T06:49:04;19.60;99.90
17128;DHT22;8679;50.842;4.322;2022-07-31T06:51:30;19.60;99.90
17128;DHT22;8679;50.842;4.322;2022-07-31T06:53:57;19.50;99.90
17128;DHT22;8679;50.842;4.322;2022-07-31T06:56:23;19.60;99.90
17128;DHT22;8679;50.842;4.322;2022-07-31T06:58:48;19.70;99.90
17128;DHT22;8679;50.842;4.322;2022-07-31T07:01:14;19.70;99.90
17128;DHT22;8679;50.842;4.322;2022-07-31T07:03:40;19.70;99.90
17128;DHT22;8679;50.842;4.322;2022-07-31T07:06:05;19.70;99.90
17128;DHT22;8679;50.842;4.322;2022-07-31T07:08:31;19.70;99.90
17128;DHT22;8679;50.842;4.322;2022-07-31T07:10:57;19.70;99.90
17128;DHT22;8679;50.842;4.322;2022-07-31T07:13:22;19.70;99.90
17128;DHT22;8679;50.842;4.322;2022-07-31T07:15:51;19.70;99.90
17128;DHT22;8679;50.842;4.322;2022-07-31T07:18:17;19.70;99.90
17128;DHT22;8679;50.842;4.322;2022-07-31T07:20:42;19.70;99.90
17128;DHT22;8679;50.842;4.322;2022-07-31T07:23:08;19.70;99.90
17128;DHT22;8679;50.842;4.322;2022-07-31T07:25:34;19.70;99.90
17128;DHT22;8679;50.842;4.322;2022-07-31T07:27:59;19.70;99.90
17128;DHT22;8679;50.842;4.322;2022-07-31T07:30:25;19.70;99.90
17128;DHT22;8679;50.842;4.322;2022-07-31T07:32:53;19.70;99.90
17128;DHT22;8679;50.842;4.322;2022-07-31T07:35:20;19.70;99.90
17128;DHT22;8679;50.842;4.322;2022-07-31T07:37:46;19.80;99.90
17128;DHT22;8679;50.842;4.322;2022-07-31T07:40:13;19.90;99.90
17128;DHT22;8679;50.842;4.322;2022-07-31T07:42:39;20.00;99.90
17128;DHT22;8679;50.842;4.322;2022-07-31T07:45:05;20.10;99.90
17128;DHT22;8679;50.842;4.322;2022-07-31T07:47:31;20.20;99.90
17128;DHT22;8679;50.842;4.322;2022-07-31T07:49:56;20.40;99.90
17128;DHT22;8679;50.842;4.322;2022-07-31T07:52:22;20.50;99.90
17128;DHT22;8679;50.842;4.322;2022-07-31T07:54:48;20.60;99.90
17128;DHT22;8679;50.842;4.322;2022-07-31T07:57:18;20.70;99.90
17128;DHT22;8679;50.842;4.322;2022-07-31T07:59:45;20.80;99.90
17128;DHT22;8679;50.842;4.322;2022-07-31T08:02:11;20.90;99.90
17128;DHT22;8679;50.842;4.322;2022-07-31T08:04:37;21.10;99.90
17128;DHT22;8679;50.842;4.322;2022-07-31T08:07:03;21.10;99.90
17128;DHT22;8679;50.842;4.322;2022-07-31T08:09:29;21.30;99.90
17128;DHT22;8679;50.842;4.322;2022-07-31T08:11:55;21.20;99.90
17128;DHT22;8679;50.842;4.322;2022-07-31T08:14:21;21.20;99.90
17128;DHT22;8679;50.842;4.322;2022-07-31T08:16:46;21.40;99.90
17128;DHT22;8679;50.842;4.322;2022-07-31T08:19:12;21.50;99.90
17128;DHT22;8679;50.842;4.322;2022-07-31T08:21:38;21.60;99.90
17128;DHT22;8679;50.842;4.322;2022-07-31T08:24:04;21.70;99.90
17128;DHT22;8679;50.842;4.322;2022-07-31T08:26:30;21.80;99.90
17128;DHT22;8679;50.842;4.322;2022-07-31T08:29:16;22.00;99.90
17128;DHT22;8679;50.842;4.322;2022-07-31T08:31:42;22.10;99.90
17128;DHT22;8679;50.842;4.322;2022-07-31T08:34:08;22.10;99.90
17128;DHT22;8679;50.842;4.322;2022-07-31T08:36:34;22.30;99.90
17128;DHT22;8679;50.842;4.322;2022-07-31T08:39:00;22.10;99.90
17128;DHT22;8679;50.842;4.322;2022-07-31T08:41:28;22.10;99.90
17128;DHT22;8679;50.842;4.322;2022-07-31T08:43:57;22.20;99.90
17128;DHT22;8679;50.842;4.322;2022-07-31T08:46:23;22.10;99.90
17128;DHT22;8679;50.842;4.322;2022-07-31T08:48:50;22.10;99.90
17128;DHT22;8679;50.842;4.322;2022-07-31T08:51:22;22.20;99.90
17128;DHT22;8679;50.842;4.322;2022-07-31T08:53:50;22.30;99.90
17128;DHT22;8679;50.842;4.322;2022-07-31T08:56:16;22.10;99.90
17128;DHT22;8679;50.842;4.322;2022-07-31T08:58:42;22.00;99.90
17128;DHT22;8679;50.842;4.322;2022-07-31T09:01:11;22.30;99.90
17128;DHT22;8679;50.842;4.322;2022-07-31T09:03:37;22.60;99.90
17128;DHT22;8679;50.842;4.322;2022-07-31T09:06:04;23.00;99.90
17128;DHT22;8679;50.842;4.322;2022-07-31T09:08:34;22.80;99.90
17128;DHT22;8679;50.842;4.322;2022-07-31T09:11:08;22.60;99.90
17128;DHT22;8679;50.842;4.322;2022-07-31T09:13:34;22.50;99.90
17128;DHT22;8679;50.842;4.322;2022-07-31T09:16:00;22.60;99.90
17128;DHT22;8679;50.842;4.322;2022-07-31T09:18:27;22.40;99.90
17128;DHT22;8679;50.842;4.322;2022-07-31T09:20:57;22.30;99.90
17128;DHT22;8679;50.842;4.322;2022-07-31T09:23:25;22.40;99.90
17128;DHT22;8679;50.842;4.322;2022-07-31T09:25:55;22.60;99.90
17128;DHT22;8679;50.842;4.322;2022-07-31T09:28:34;22.70;99.90
17128;DHT22;8679;50.842;4.322;2022-07-31T09:31:01;22.80;99.90
17128;DHT22;8679;50.842;4.322;2022-07-31T09:33:28;22.90;99.90
17128;DHT22;8679;50.842;4.322;2022-07-31T09:35:55;23.10;99.90
17128;DHT22;8679;50.842;4.322;2022-07-31T09:38:38;23.20;99.90
17128;DHT22;8679;50.842;4.322;2022-07-31T09:41:12;23.10;99.90
17128;DHT22;8679;50.842;4.322;2022-07-31T09:43:39;23.10;99.90
17128;DHT22;8679;50.842;4.322;2022-07-31T09:46:06;23.10;99.90
17128;DHT22;8679;50.842;4.322;2022-07-31T09:48:33;23.30;99.90
17128;DHT22;8679;50.842;4.322;2022-07-31T09:51:01;23.50;99.90
17128;DHT22;8679;50.842;4.322;2022-07-31T09:53:45;23.50;99.90
17128;DHT22;8679;50.842;4.322;2022-07-31T09:56:11;23.40;99.90
17128;DHT22;8679;50.842;4.322;2022-07-31T09:58:39;23.50;99.90
17128;DHT22;8679;50.842;4.322;2022-07-31T10:01:08;23.60;99.90
17128;DHT22;8679;50.842;4.322;2022-07-31T10:03:38;23.60;99.90
17128;DHT22;8679;50.842;4.322;2022-07-31T10:06:11;23.80;99.90
17128;DHT22;8679;50.842;4.322;2022-07-31T10:08:38;23.90;99.90
17128;DHT22;8679;50.842;4.322;2022-07-31T10:11:06;24.00;99.90
17128;DHT22;8679;50.842;4.322;2022-07-31T10:13:35;24.00;99.90
17128;DHT22;8679;50.842;4.322;2022-07-31T10:16:02;24.10;99.90
17128;DHT22;8679;50.842;4.322;2022-07-31T10:18:30;24.00;99.90
17128;DHT22;8679;50.842;4.322;2022-07-31T10:21:00;23.90;99.90
17128;DHT22;8679;50.842;4.322;2022-07-31T10:23:26;23.90;99.90
17128;DHT22;8679;50.842;4.322;2022-07-31T10:25:59;23.80;99.90
17128;DHT22;8679;50.842;4.322;2022-07-31T10:28:26;23.60;99.90
17128;DHT22;8679;50.842;4.322;2022-07-31T10:30:54;23.50;99.90
17128;DHT22;8679;50.842;4.322;2022-07-31T10:33:20;23.50;99.90
17128;DHT22;8679;50.842;4.322;2022-07-31T10:35:58;23.40;99.90
17128;DHT22;8679;50.842;4.322;2022-07-31T10:38:29;23.40;99.90
17128;DHT22;8679;50.842;4.322;2022-07-31T10:46:06;23.60;99.90
17128;DHT22;8679;50.842;4.322;2022-07-31T10:48:32;23.70;99.90
17128;DHT22;8679;50.842;4.322;2022-07-31T10:51:06;23.60;99.90
17128;DHT22;8679;50.842;4.322;2022-07-31T10:53:34;23.80;99.90
17128;DHT22;8679;50.842;4.322;2022-07-31T10:56:02;23.80;99.90
17128;DHT22;8679;50.842;4.322;2022-07-31T10:58:28;23.90;99.90
17128;DHT22;8679;50.842;4.322;2022-07-31T11:01:05;23.90;99.90
17128;DHT22;8679;50.842;4.322;2022-07-31T11:03:58;23.90;99.90
17128;DHT22;8679;50.842;4.322;2022-07-31T11:06:24;23.90;99.90
17128;DHT22;8679;50.842;4.322;2022-07-31T11:08:52;24.10;99.90
17128;DHT22;8679;50.842;4.322;2022-07-31T11:11:35;24.10;99.90
17128;DHT22;8679;50.842;4.322;2022-07-31T11:14:01;24.00;99.90
17128;DHT22;8679;50.842;4.322;2022-07-31T11:16:28;23.80;99.90
17128;DHT22;8679;50.842;4.322;2022-07-31T11:19:05;23.50;99.90
17128;DHT22;8679;50.842;4.322;2022-07-31T11:21:39;23.50;99.90
17128;DHT22;8679;50.842;4.322;2022-07-31T11:24:20;23.80;99.90
17128;DHT22;8679;50.842;4.322;2022-07-31T11:27:05;24.00;99.90
17128;DHT22;8679;50.842;4.322;2022-07-31T11:29:38;23.90;99.90
17128;DHT22;8679;50.842;4.322;2022-07-31T11:37:18;24.00;99.90
17128;DHT22;8679;50.842;4.322;2022-07-31T11:39:46;24.20;99.90
17128;DHT22;8679;50.842;4.322;2022-07-31T11:42:11;24.10;99.90
17128;DHT22;8679;50.842;4.322;2022-07-31T11:44:37;23.90;99.90
17128;DHT22;8679;50.842;4.322;2022-07-31T11:47:03;24.00;99.90
17128;DHT22;8679;50.842;4.322;2022-07-31T11:49:29;24.20;99.90
17128;DHT22;8679;50.842;4.322;2022-07-31T11:52:02;24.30;99.90
17128;DHT22;8679;50.842;4.322;2022-07-31T11:54:29;24.30;99.90
17128;DHT22;8679;50.842;4.322;2022-07-31T11:56:55;24.40;99.90
17128;DHT22;8679;50.842;4.322;2022-07-31T11:59:47;24.40;99.90
17128;DHT22;8679;50.842;4.322;2022-07-31T12:02:13;24.20;99.90
17128;DHT22;8679;50.842;4.322;2022-07-31T12:04:39;24.10;99.90
17128;DHT22;8679;50.842;4.322;2022-07-31T12:07:06;24.30;99.90
17128;DHT22;8679;50.842;4.322;2022-07-31T12:09:33;24.10;99.90
17128;DHT22;8679;50.842;4.322;2022-07-31T12:12:01;24.00;99.90
17128;DHT22;8679;50.842;4.322;2022-07-31T12:16:54;24.00;99.90
17128;DHT22;8679;50.842;4.322;2022-07-31T12:19:30;24.20;99.90
17128;DHT22;8679;50.842;4.322;2022-07-31T12:21:56;24.40;99.90
17128;DHT22;8679;50.842;4.322;2022-07-31T12:24:23;24.60;99.90
17128;DHT22;8679;50.842;4.322;2022-07-31T12:26:54;24.80;99.90
17128;DHT22;8679;50.842;4.322;2022-07-31T12:29:29;24.90;99.90
17128;DHT22;8679;50.842;4.322;2022-07-31T12:31:55;25.10;99.90
17128;DHT22;8679;50.842;4.322;2022-07-31T12:34:30;25.10;99.90
17128;DHT22;8679;50.842;4.322;2022-07-31T12:37:07;25.00;99.90
17128;DHT22;8679;50.842;4.322;2022-07-31T12:39:38;24.80;99.90
17128;DHT22;8679;50.842;4.322;2022-07-31T12:42:24;24.90;99.90
17128;DHT22;8679;50.842;4.322;2022-07-31T12:44:52;25.10;99.90
17128;DHT22;8679;50.842;4.322;2022-07-31T12:47:29;25.30;99.90
17128;DHT22;8679;50.842;4.322;2022-07-31T12:49:59;25.40;99.90
17128;DHT22;8679;50.842;4.322;2022-07-31T12:52:28;25.40;99.90
17128;DHT22;8679;50.842;4.322;2022-07-31T12:54:56;25.50;99.90
17128;DHT22;8679;50.842;4.322;2022-07-31T12:57:21;25.60;99.90
17128;DHT22;8679;50.842;4.322;2022-07-31T12:59:47;25.50;99.90
17128;DHT22;8679;50.842;4.322;2022-07-31T13:02:13;25.20;99.90
17128;DHT22;8679;50.842;4.322;2022-07-31T13:04:38;25.10;99.90
17128;DHT22;8679;50.842;4.322;2022-07-31T13:07:04;24.90;99.90
17128;DHT22;8679;50.842;4.322;2022-07-31T13:09:31;24.80;99.90
17128;DHT22;8679;50.842;4.322;2022-07-31T13:11:57;24.80;99.90
17128;DHT22;8679;50.842;4.322;2022-07-31T13:14:22;24.70;99.90
17128;DHT22;8679;50.842;4.322;2022-07-31T13:16:50;24.70;99.90
17128;DHT22;8679;50.842;4.322;2022-07-31T13:19:16;24.80;99.90
17128;DHT22;8679;50.842;4.322;2022-07-31T13:21:42;25.00;99.90
17128;DHT22;8679;50.842;4.322;2022-07-31T13:24:08;25.00;99.90
17128;DHT22;8679;50.842;4.322;2022-07-31T13:26:35;25.30;99.90
17128;DHT22;8679;50.842;4.322;2022-07-31T13:29:01;25.40;99.90
17128;DHT22;8679;50.842;4.322;2022-07-31T13:31:27;25.40;99.90
17128;DHT22;8679;50.842;4.322;2022-07-31T13:33:54;25.20;99.90
17128;DHT22;8679;50.842;4.322;2022-07-31T13:36:20;25.10;99.90
17128;DHT22;8679;50.842;4.322;2022-07-31T13:38:46;25.00;99.90
17128;DHT22;8679;50.842;4.322;2022-07-31T13:41:11;24.90;99.90
17128;DHT22;8679;50.842;4.322;2022-07-31T13:43:52;25.00;99.90
17128;DHT22;8679;50.842;4.322;2022-07-31T13:46:21;24.90;99.90
17128;DHT22;8679;50.842;4.322;2022-07-31T13:48:50;24.90;99.90
17128;DHT22;8679;50.842;4.322;2022-07-31T13:51:16;24.80;99.90
17128;DHT22;8679;50.842;4.322;2022-07-31T13:53:41;24.80;99.90
17128;DHT22;8679;50.842;4.322;2022-07-31T13:56:07;25.00;99.90
17128;DHT22;8679;50.842;4.322;2022-07-31T13:58:33;25.00;99.90
17128;DHT22;8679;50.842;4.322;2022-07-31T14:00:59;25.10;99.90
17128;DHT22;8679;50.842;4.322;2022-07-31T14:03:25;25.00;99.90
17128;DHT22;8679;50.842;4.322;2022-07-31T14:05:51;25.00;99.90
17128;DHT22;8679;50.842;4.322;2022-07-31T14:08:17;24.90;99.90
17128;DHT22;8679;50.842;4.322;2022-07-31T14:10:44;25.00;99.90
17128;DHT22;8679;50.842;4.322;2022-07-31T14:13:11;24.90;99.90
17128;DHT22;8679;50.842;4.322;2022-07-31T14:15:36;24.80;99.90
17128;DHT22;8679;50.842;4.322;2022-07-31T14:18:03;24.80;99.90
17128;DHT22;8679;50.842;4.322;2022-07-31T14:20:28;24.80;99.90
17128;DHT22;8679;50.842;4.322;2022-07-31T14:22:57;24.70;99.90
17128;DHT22;8679;50.842;4.322;2022-07-31T14:25:23;24.80;99.90
17128;DHT22;8679;50.842;4.322;2022-07-31T14:27:48;25.00;99.90
17128;DHT22;8679;50.842;4.322;2022-07-31T14:30:17;25.20;99.90
17128;DHT22;8679;50.842;4.322;2022-07-31T14:32:43;25.10;99.90
17128;DHT22;8679;50.842;4.322;2022-07-31T14:35:09;25.10;99.90
17128;DHT22;8679;50.842;4.322;2022-07-31T14:37:36;25.20;99.90
17128;DHT22;8679;50.842;4.322;2022-07-31T14:40:03;25.40;99.90
17128;DHT22;8679;50.842;4.322;2022-07-31T14:42:28;25.40;99.90
17128;DHT22;8679;50.842;4.322;2022-07-31T14:44:54;25.40;99.90
17128;DHT22;8679;50.842;4.322;2022-07-31T14:47:20;25.30;99.90
17128;DHT22;8679;50.842;4.322;2022-07-31T14:49:45;25.40;99.90
17128;DHT22;8679;50.842;4.322;2022-07-31T14:52:11;25.50;99.90
17128;DHT22;8679;50.842;4.322;2022-07-31T14:54:37;25.60;99.90
17128;DHT22;8679;50.842;4.322;2022-07-31T14:57:02;25.40;99.90
17128;DHT22;8679;50.842;4.322;2022-07-31T14:59:30;25.40;99.90
17128;DHT22;8679;50.842;4.322;2022-07-31T15:01:56;25.10;99.90
17128;DHT22;8679;50.842;4.322;2022-07-31T15:04:22;25.10;99.90
17128;DHT22;8679;50.842;4.322;2022-07-31T15:06:48;25.20;99.90
17128;DHT22;8679;50.842;4.322;2022-07-31T15:09:14;25.10;99.90
17128;DHT22;8679;50.842;4.322;2022-07-31T15:11:40;25.10;99.90
17128;DHT22;8679;50.842;4.322;2022-07-31T15:14:06;25.00;99.90
17128;DHT22;8679;50.842;4.322;2022-07-31T15:16:31;25.00;99.90
17128;DHT22;8679;50.842;4.322;2022-07-31T15:18:57;25.00;99.90
17128;DHT22;8679;50.842;4.322;2022-07-31T15:21:23;24.90;99.90
17128;DHT22;8679;50.842;4.322;2022-07-31T15:23:49;24.80;99.90
17128;DHT22;8679;50.842;4.322;2022-07-31T15:26:15;24.80;99.90
17128;DHT22;8679;50.842;4.322;2022-07-31T15:28:41;24.60;99.90
17128;DHT22;8679;50.842;4.322;2022-07-31T15:31:06;24.70;99.90
17128;DHT22;8679;50.842;4.322;2022-07-31T15:33:32;24.60;99.90
17128;DHT22;8679;50.842;4.322;2022-07-31T15:35:58;24.60;99.90
17128;DHT22;8679;50.842;4.322;2022-07-31T15:38:24;24.70;99.90
17128;DHT22;8679;50.842;4.322;2022-07-31T15:40:50;24.60;99.90
17128;DHT22;8679;50.842;4.322;2022-07-31T15:43:16;24.50;99.90
17128;DHT22;8679;50.842;4.322;2022-07-31T15:45:42;24.50;99.90
17128;DHT22;8679;50.842;4.322;2022-07-31T15:48:08;24.60;99.90
17128;DHT22;8679;50.842;4.322;2022-07-31T15:50:34;24.50;99.90
17128;DHT22;8679;50.842;4.322;2022-07-31T15:53:00;24.40;99.90
17128;DHT22;8679;50.842;4.322;2022-07-31T15:55:27;24.40;99.90
17128;DHT22;8679;50.842;4.322;2022-07-31T15:57:56;24.40;99.90
17128;DHT22;8679;50.842;4.322;2022-07-31T16:00:22;24.40;99.90
17128;DHT22;8679;50.842;4.322;2022-07-31T16:02:49;24.40;99.90
17128;DHT22;8679;50.842;4.322;2022-07-31T16:05:16;24.40;99.90